Climatologie pour Saint-Brevin les Pins
Jour • Résumé pour juillet 16, 2017 Système :  Métrique    Anglais   Mixte
« - 1 jour
+ 1 jour »
Jour Semaine Mois Année Personnalisé
  Maximum : Minimum : Moyenne :
Température sous abri : 31.2 °C 14.1 °C 22.1 °C
Point de rosée : 18.5 °C 12.9 °C 15.8 °C
Humidité : 94 % 36 % 70 %
Vitesse du vent : 22.5 km/h 0.0 km/h 5.4 km/h
Rafale : 27.4 km/h - -
Direction :- - East
Pression : 1025.3 hPa 1021.6 hPa -
Précipitations : 0.0 mm    
Historical Graphs
 
 
Tableau de données pour juillet 16, 2017
Heure Tempé Pt rosée Pression Vent Vitesse Rafale Humidité Taux pluie (/hr) Soleil
00:00 17.0 °C 15.0 °C 1024.6 hPa Calm   8.0 km/h 88 % 0.0 mm 0 W/m2
00:10 17.1 °C 15.1 °C 1024.6 hPa Calm   4.8 km/h 88 % 0.0 mm 0 W/m2
00:15 17.1 °C 15.1 °C 1024.6 hPa NNW 4.8 km/h 6.4 km/h 88 % 0.0 mm 0 W/m2
00:20 16.9 °C 15.1 °C 1024.6 hPa Calm   6.4 km/h 89 % 0.0 mm 0 W/m2
00:25 16.8 °C 15.0 °C 1024.6 hPa NNE 3.2 km/h 8.0 km/h 89 % 0.0 mm 0 W/m2
00:30 16.8 °C 15.2 °C 1024.6 hPa North 1.6 km/h 8.0 km/h 90 % 0.0 mm 0 W/m2
00:35 16.8 °C 15.0 °C 1024.3 hPa North 3.2 km/h 6.4 km/h 89 % 0.0 mm 0 W/m2
00:40 16.8 °C 15.0 °C 1024.6 hPa Calm   6.4 km/h 89 % 0.0 mm 0 W/m2
00:50 16.8 °C 15.1 °C 1024.6 hPa Calm   8.0 km/h 90 % 0.0 mm 0 W/m2
00:55 16.6 °C 15.0 °C 1024.6 hPa Calm   1.6 km/h 90 % 0.0 mm 0 W/m2
01:00 16.5 °C 14.9 °C 1024.6 hPa Calm   3.2 km/h 90 % 0.0 mm 0 W/m2
01:05 16.4 °C 15.0 °C 1024.6 hPa Calm   3.2 km/h 91 % 0.0 mm 0 W/m2
01:10 16.4 °C 15.0 °C 1024.6 hPa Calm   3.2 km/h 91 % 0.0 mm 0 W/m2
01:15 16.4 °C 14.9 °C 1024.6 hPa North 3.2 km/h 3.2 km/h 91 % 0.0 mm 0 W/m2
01:20 16.2 °C 14.8 °C 1024.6 hPa Calm   3.2 km/h 91 % 0.0 mm 0 W/m2
01:25 16.2 °C 14.7 °C 1024.6 hPa North 3.2 km/h 4.8 km/h 91 % 0.0 mm 0 W/m2
01:35 16.4 °C 15.1 °C 1024.6 hPa NE 1.6 km/h 6.4 km/h 92 % 0.0 mm 0 W/m2
01:40 16.4 °C 15.0 °C 1024.6 hPa NE 3.2 km/h 9.7 km/h 91 % 0.0 mm 0 W/m2
01:45 16.7 °C 15.2 °C 1024.6 hPa NE 3.2 km/h 9.7 km/h 91 % 0.0 mm 0 W/m2
01:50 16.7 °C 15.2 °C 1024.6 hPa Calm   9.7 km/h 91 % 0.0 mm 0 W/m2
01:55 16.7 °C 15.0 °C 1024.6 hPa NNE 1.6 km/h 9.7 km/h 90 % 0.0 mm 0 W/m2
02:00 16.7 °C 15.1 °C 1024.6 hPa Calm   4.8 km/h 90 % 0.0 mm 0 W/m2
02:05 16.8 °C 15.1 °C 1024.6 hPa NE 3.2 km/h 8.0 km/h 90 % 0.0 mm 0 W/m2
02:10 16.7 °C 15.0 °C 1024.6 hPa NE 3.2 km/h 8.0 km/h 90 % 0.0 mm 0 W/m2
02:15 16.5 °C 14.9 °C 1024.6 hPa Calm   8.0 km/h 90 % 0.0 mm 0 W/m2
02:20 16.6 °C 14.9 °C 1024.6 hPa NNE 4.8 km/h 11.3 km/h 90 % 0.0 mm 0 W/m2
02:25 16.7 °C 15.0 °C 1024.6 hPa NE 1.6 km/h 12.9 km/h 90 % 0.0 mm 0 W/m2
02:30 16.7 °C 14.9 °C 1024.6 hPa NE 3.2 km/h 12.9 km/h 89 % 0.0 mm 0 W/m2
02:35 16.7 °C 14.9 °C 1024.6 hPa NE 3.2 km/h 9.7 km/h 89 % 0.0 mm 0 W/m2
02:40 16.7 °C 14.7 °C 1024.6 hPa NE 1.6 km/h 12.9 km/h 88 % 0.0 mm 0 W/m2
02:45 16.7 °C 14.7 °C 1024.6 hPa NNE 3.2 km/h 12.9 km/h 88 % 0.0 mm 0 W/m2
02:55 16.4 °C 14.6 °C 1024.9 hPa NE 1.6 km/h 11.3 km/h 89 % 0.0 mm 0 W/m2
03:05 16.5 °C 14.5 °C 1024.6 hPa ENE 4.8 km/h 14.5 km/h 88 % 0.0 mm 0 W/m2
03:10 16.5 °C 14.3 °C 1024.6 hPa North 8.0 km/h 14.5 km/h 87 % 0.0 mm 0 W/m2
03:15 16.4 °C 14.2 °C 1024.6 hPa North 8.0 km/h 16.1 km/h 87 % 0.0 mm 0 W/m2
03:20 16.4 °C 14.2 °C 1024.6 hPa ENE 3.2 km/h 16.1 km/h 87 % 0.0 mm 0 W/m2
03:25 16.3 °C 14.2 °C 1024.6 hPa ENE 8.0 km/h 16.1 km/h 87 % 0.0 mm 0 W/m2
03:30 16.3 °C 14.0 °C 1024.6 hPa ENE 3.2 km/h 16.1 km/h 86 % 0.0 mm 0 W/m2
03:35 16.3 °C 14.0 °C 1024.9 hPa Calm   14.5 km/h 86 % 0.0 mm 0 W/m2
03:40 16.2 °C 13.9 °C 1024.9 hPa ENE 3.2 km/h 9.7 km/h 86 % 0.0 mm 0 W/m2
03:50 16.0 °C 13.8 °C 1024.6 hPa ENE 3.2 km/h 11.3 km/h 87 % 0.0 mm 0 W/m2
03:55 15.9 °C 13.7 °C 1024.6 hPa NE 3.2 km/h 11.3 km/h 87 % 0.0 mm 0 W/m2
04:00 15.7 °C 13.7 °C 1024.6 hPa ENE 4.8 km/h 11.3 km/h 88 % 0.0 mm 0 W/m2
04:05 15.6 °C 13.6 °C 1024.9 hPa Calm   11.3 km/h 88 % 0.0 mm 0 W/m2
04:10 15.7 °C 13.7 °C 1024.9 hPa NE 1.6 km/h 11.3 km/h 88 % 0.0 mm 0 W/m2
04:15 15.7 °C 13.7 °C 1024.9 hPa ENE 8.0 km/h 12.9 km/h 88 % 0.0 mm 0 W/m2
04:20 15.7 °C 13.7 °C 1024.6 hPa NNE 3.2 km/h 12.9 km/h 88 % 0.0 mm 0 W/m2
04:25 15.7 °C 13.7 °C 1024.6 hPa NNE 3.2 km/h 11.3 km/h 88 % 0.0 mm 0 W/m2
04:30 15.6 °C 13.6 °C 1024.6 hPa ENE 1.6 km/h 11.3 km/h 88 % 0.0 mm 0 W/m2
04:35 15.6 °C 13.6 °C 1024.6 hPa Calm   9.7 km/h 88 % 0.0 mm 0 W/m2
04:40 15.5 °C 13.5 °C 1024.6 hPa NE 4.8 km/h 11.3 km/h 88 % 0.0 mm 0 W/m2
04:45 15.4 °C 13.4 °C 1024.6 hPa NNE 3.2 km/h 11.3 km/h 88 % 0.0 mm 0 W/m2
04:50 15.3 °C 13.5 °C 1024.6 hPa NNE 6.4 km/h 9.7 km/h 89 % 0.0 mm 0 W/m2
04:55 15.3 °C 13.5 °C 1024.6 hPa NE 3.2 km/h 9.7 km/h 89 % 0.0 mm 0 W/m2
05:00 15.3 °C 13.5 °C 1024.6 hPa NNE 1.6 km/h 9.7 km/h 89 % 0.0 mm 0 W/m2
05:10 15.2 °C 13.5 °C 1024.6 hPa NE 8.0 km/h 8.0 km/h 90 % 0.0 mm 0 W/m2
05:20 15.0 °C 13.4 °C 1024.6 hPa Calm   9.7 km/h 90 % 0.0 mm 0 W/m2
05:25 15.0 °C 13.4 °C 1024.6 hPa ENE 1.6 km/h 11.3 km/h 90 % 0.0 mm 0 W/m2
05:30 14.8 °C 13.4 °C 1024.9 hPa ENE 3.2 km/h 11.3 km/h 91 % 0.0 mm 0 W/m2
05:35 14.8 °C 13.4 °C 1024.9 hPa NNE 1.6 km/h 9.7 km/h 91 % 0.0 mm 0 W/m2
05:40 14.8 °C 13.4 °C 1024.9 hPa NE 1.6 km/h 9.7 km/h 91 % 0.0 mm 0 W/m2
05:45 14.8 °C 13.4 °C 1024.9 hPa Calm   6.4 km/h 91 % 0.0 mm 0 W/m2
05:50 14.8 °C 13.3 °C 1024.6 hPa Calm   8.0 km/h 91 % 0.0 mm 0 W/m2
05:55 14.7 °C 13.3 °C 1024.9 hPa ENE 1.6 km/h 8.0 km/h 91 % 0.0 mm 0 W/m2
06:05 14.4 °C 13.2 °C 1024.9 hPa ENE 3.2 km/h 6.4 km/h 92 % 0.0 mm 0 W/m2
06:10 14.4 °C 13.2 °C 1024.9 hPa ENE 1.6 km/h 6.4 km/h 92 % 0.0 mm 0 W/m2
06:15 14.4 °C 13.1 °C 1024.9 hPa ENE 3.2 km/h 6.4 km/h 92 % 0.0 mm 0 W/m2
06:20 14.3 °C 13.1 °C 1024.6 hPa ENE 3.2 km/h 6.4 km/h 92 % 0.0 mm 0 W/m2
06:25 14.3 °C 13.2 °C 1024.9 hPa Calm   6.4 km/h 93 % 0.0 mm 0 W/m2
06:30 14.3 °C 13.2 °C 1024.9 hPa ENE 3.2 km/h 6.4 km/h 93 % 0.0 mm 0 W/m2
06:35 14.2 °C 12.9 °C 1024.9 hPa Calm   6.4 km/h 92 % 0.0 mm 5 W/m2
06:40 14.1 °C 13.0 °C 1024.9 hPa ENE 3.2 km/h 6.4 km/h 93 % 0.0 mm 7 W/m2
06:45 14.1 °C 13.0 °C 1024.9 hPa Calm   6.4 km/h 93 % 0.0 mm 9 W/m2
06:50 14.2 °C 13.2 °C 1024.9 hPa ENE 3.2 km/h 6.4 km/h 94 % 0.0 mm 11 W/m2
06:55 14.3 °C 13.3 °C 1024.9 hPa Calm   6.4 km/h 94 % 0.0 mm 12 W/m2
07:00 14.3 °C 13.2 °C 1024.9 hPa Calm   11.3 km/h 93 % 0.0 mm 16 W/m2
07:05 14.3 °C 13.2 °C 1024.9 hPa East 4.8 km/h 11.3 km/h 93 % 0.0 mm 18 W/m2
07:10 14.6 °C 13.6 °C 1024.9 hPa East 4.8 km/h 9.7 km/h 94 % 0.0 mm 19 W/m2
07:15 14.7 °C 13.5 °C 1024.9 hPa Calm   11.3 km/h 93 % 0.0 mm 21 W/m2
07:20 14.8 °C 13.7 °C 1024.9 hPa Calm   12.9 km/h 93 % 0.0 mm 23 W/m2
07:25 15.0 °C 13.9 °C 1024.9 hPa East 8.0 km/h 12.9 km/h 93 % 0.0 mm 25 W/m2
07:35 15.3 °C 14.0 °C 1024.9 hPa East 3.2 km/h 12.9 km/h 92 % 0.0 mm 28 W/m2
07:40 15.4 °C 14.2 °C 1025.3 hPa ENE 4.8 km/h 12.9 km/h 92 % 0.0 mm 28 W/m2
07:45 15.6 °C 14.3 °C 1024.9 hPa ENE 6.4 km/h 14.5 km/h 92 % 0.0 mm 30 W/m2
07:50 15.7 °C 14.3 °C 1025.3 hPa NE 3.2 km/h 14.5 km/h 91 % 0.0 mm 32 W/m2
07:55 15.8 °C 14.4 °C 1024.9 hPa ENE 1.6 km/h 12.9 km/h 91 % 0.0 mm 33 W/m2
08:00 16.0 °C 14.4 °C 1025.3 hPa NE 1.6 km/h 9.7 km/h 90 % 0.0 mm 35 W/m2
08:05 16.1 °C 14.5 °C 1025.3 hPa East 3.2 km/h 9.7 km/h 90 % 0.0 mm 39 W/m2
08:10 16.3 °C 14.6 °C 1025.3 hPa NE 3.2 km/h 14.5 km/h 90 % 0.0 mm 199 W/m2
08:20 16.6 °C 14.6 °C 1025.3 hPa NNE 3.2 km/h 16.1 km/h 88 % 0.0 mm 229 W/m2
08:25 16.8 °C 14.8 °C 1025.3 hPa ENE 12.9 km/h 19.3 km/h 88 % 0.0 mm 241 W/m2
08:30 16.9 °C 14.8 °C 1025.3 hPa NE 11.3 km/h 19.3 km/h 87 % 0.0 mm 253 W/m2
08:35 17.2 °C 15.0 °C 1025.3 hPa NE 3.2 km/h 17.7 km/h 87 % 0.0 mm 269 W/m2
08:40 17.3 °C 15.0 °C 1025.3 hPa ENE 11.3 km/h 14.5 km/h 86 % 0.0 mm 281 W/m2
08:45 17.6 °C 15.1 °C 1025.3 hPa ENE 12.9 km/h 16.1 km/h 85 % 0.0 mm 295 W/m2
08:50 17.8 °C 15.3 °C 1025.3 hPa ENE 11.3 km/h 16.1 km/h 85 % 0.0 mm 313 W/m2
08:55 18.2 °C 15.4 °C 1025.3 hPa NE 3.2 km/h 16.1 km/h 84 % 0.0 mm 325 W/m2
09:05 18.6 °C 15.5 °C 1025.3 hPa NE 1.6 km/h 12.9 km/h 82 % 0.0 mm 353 W/m2
09:10 18.9 °C 15.4 °C 1025.3 hPa NE 1.6 km/h 12.9 km/h 80 % 0.0 mm 367 W/m2
09:15 19.0 °C 15.7 °C 1025.3 hPa NNE 6.4 km/h 14.5 km/h 81 % 0.0 mm 380 W/m2
09:20 19.1 °C 15.5 °C 1025.3 hPa NNE 6.4 km/h 14.5 km/h 80 % 0.0 mm 396 W/m2
09:25 19.3 °C 15.5 °C 1025.3 hPa NNE 6.4 km/h 16.1 km/h 79 % 0.0 mm 410 W/m2
09:30 19.3 °C 15.5 °C 1025.3 hPa NE 6.4 km/h 16.1 km/h 79 % 0.0 mm 422 W/m2
09:40 19.6 °C 15.7 °C 1025.3 hPa NNE 11.3 km/h 16.1 km/h 78 % 0.0 mm 448 W/m2
09:50 20.2 °C 16.1 °C 1025.3 hPa NE 8.0 km/h 16.1 km/h 77 % 0.0 mm 476 W/m2
09:55 20.4 °C 15.8 °C 1025.3 hPa NE 6.4 km/h 16.1 km/h 75 % 0.0 mm 489 W/m2
10:00 20.8 °C 16.0 °C 1025.3 hPa ENE 11.3 km/h 14.5 km/h 74 % 0.0 mm 503 W/m2
10:05 20.9 °C 15.9 °C 1025.3 hPa NNE 6.4 km/h 14.5 km/h 73 % 0.0 mm 515 W/m2
10:10 20.8 °C 15.8 °C 1025.3 hPa NNE 4.8 km/h 12.9 km/h 73 % 0.0 mm 527 W/m2
10:15 21.1 °C 16.2 °C 1025.3 hPa ENE 1.6 km/h 14.5 km/h 74 % 0.0 mm 541 W/m2
10:20 21.4 °C 16.4 °C 1025.3 hPa NNE 4.8 km/h 16.1 km/h 73 % 0.0 mm 548 W/m2
10:25 21.2 °C 15.9 °C 1025.3 hPa NNE 4.8 km/h 16.1 km/h 72 % 0.0 mm 566 W/m2
10:35 21.7 °C 16.2 °C 1025.3 hPa NNE 6.4 km/h 12.9 km/h 71 % 0.0 mm 592 W/m2
10:40 21.8 °C 16.3 °C 1025.3 hPa North 4.8 km/h 12.9 km/h 71 % 0.0 mm 605 W/m2
10:45 21.9 °C 16.2 °C 1025.3 hPa East 4.8 km/h 17.7 km/h 70 % 0.0 mm 617 W/m2
10:50 22.2 °C 16.9 °C 1025.3 hPa NE 4.8 km/h 17.7 km/h 72 % 0.0 mm 629 W/m2
10:55 22.4 °C 16.6 °C 1025.3 hPa ENE 4.8 km/h 16.1 km/h 70 % 0.0 mm 640 W/m2
11:00 22.4 °C 16.4 °C 1025.3 hPa North 6.4 km/h 16.1 km/h 69 % 0.0 mm 652 W/m2
11:05 22.6 °C 16.8 °C 1024.9 hPa ENE 1.6 km/h 16.1 km/h 70 % 0.0 mm 664 W/m2
11:10 22.8 °C 16.6 °C 1025.3 hPa North 6.4 km/h 16.1 km/h 68 % 0.0 mm 675 W/m2
11:15 22.9 °C 16.4 °C 1024.9 hPa NE 6.4 km/h 14.5 km/h 67 % 0.0 mm 686 W/m2
11:20 23.1 °C 16.8 °C 1025.3 hPa NNE 8.0 km/h 14.5 km/h 68 % 0.0 mm 694 W/m2
11:25 23.3 °C 16.4 °C 1025.3 hPa North 9.7 km/h 14.5 km/h 65 % 0.0 mm 707 W/m2
11:30 23.8 °C 16.8 °C 1024.9 hPa NNE 4.8 km/h 14.5 km/h 65 % 0.0 mm 715 W/m2
11:35 23.9 °C 17.0 °C 1024.9 hPa ENE 8.0 km/h 14.5 km/h 65 % 0.0 mm 726 W/m2
11:45 24.8 °C 16.8 °C 1024.9 hPa ENE 8.0 km/h 16.1 km/h 61 % 0.0 mm 744 W/m2
11:50 24.6 °C 16.0 °C 1024.9 hPa NE 3.2 km/h 16.1 km/h 59 % 0.0 mm 754 W/m2
11:55 24.8 °C 16.2 °C 1024.9 hPa ENE 11.3 km/h 16.1 km/h 59 % 0.0 mm 761 W/m2
12:05 25.1 °C 17.0 °C 1024.9 hPa Calm   14.5 km/h 61 % 0.0 mm 779 W/m2
12:10 25.3 °C 16.4 °C 1024.9 hPa East 9.7 km/h 14.5 km/h 58 % 0.0 mm 784 W/m2
12:15 25.4 °C 17.1 °C 1024.9 hPa ENE 1.6 km/h 17.7 km/h 60 % 0.0 mm 791 W/m2
12:20 25.3 °C 16.1 °C 1024.9 hPa NE 4.8 km/h 17.7 km/h 57 % 0.0 mm 798 W/m2
12:25 25.9 °C 17.0 °C 1024.6 hPa NNW 4.8 km/h 14.5 km/h 58 % 0.0 mm 807 W/m2
12:30 26.3 °C 16.6 °C 1024.6 hPa North 1.6 km/h 14.5 km/h 55 % 0.0 mm 810 W/m2
12:35 26.4 °C 16.3 °C 1024.6 hPa North 3.2 km/h 12.9 km/h 54 % 0.0 mm 819 W/m2
12:40 26.2 °C 16.1 °C 1024.6 hPa East 8.0 km/h 12.9 km/h 54 % 0.0 mm 824 W/m2
12:50 26.4 °C 16.6 °C 1024.6 hPa NNE 3.2 km/h 16.1 km/h 55 % 0.0 mm 833 W/m2
12:55 26.8 °C 16.1 °C 1024.6 hPa East 9.7 km/h 16.1 km/h 52 % 0.0 mm 840 W/m2
13:00 27.4 °C 16.4 °C 1024.6 hPa NE 8.0 km/h 16.1 km/h 51 % 0.0 mm 840 W/m2
13:05 27.3 °C 16.3 °C 1024.6 hPa NE 1.6 km/h 16.1 km/h 51 % 0.0 mm 849 W/m2
13:10 27.3 °C 15.9 °C 1024.6 hPa North 9.7 km/h 16.1 km/h 50 % 0.0 mm 849 W/m2
13:15 26.9 °C 15.6 °C 1024.6 hPa NE 4.8 km/h 16.1 km/h 50 % 0.0 mm 858 W/m2
13:20 27.7 °C 15.3 °C 1024.3 hPa NNE 9.7 km/h 14.5 km/h 47 % 0.0 mm 860 W/m2
13:25 27.9 °C 15.6 °C 1024.3 hPa NE 6.4 km/h 12.9 km/h 47 % 0.0 mm 863 W/m2
13:35 27.2 °C 14.5 °C 1024.3 hPa NE 4.8 km/h 12.9 km/h 46 % 0.0 mm 868 W/m2
13:45 28.5 °C 16.1 °C 1024.3 hPa NE 4.8 km/h 16.1 km/h 47 % 0.0 mm 872 W/m2
13:50 28.4 °C 15.7 °C 1024.3 hPa NNE 3.2 km/h 16.1 km/h 46 % 0.0 mm 867 W/m2
13:55 28.2 °C 15.5 °C 1024.3 hPa ESE 8.0 km/h 17.7 km/h 46 % 0.0 mm 874 W/m2
14:00 28.2 °C 16.4 °C 1024.3 hPa North 6.4 km/h 17.7 km/h 49 % 0.0 mm 874 W/m2
14:05 29.0 °C 15.9 °C 1024.3 hPa ENE 11.3 km/h 17.7 km/h 45 % 0.0 mm 870 W/m2
14:10 28.8 °C 16.0 °C 1024.3 hPa ENE 11.3 km/h 17.7 km/h 46 % 0.0 mm 874 W/m2
14:20 28.9 °C 16.5 °C 1023.9 hPa North 14.5 km/h 14.5 km/h 47 % 0.0 mm 870 W/m2
14:25 29.1 °C 15.6 °C 1023.9 hPa NNE 8.0 km/h 16.1 km/h 44 % 0.0 mm 868 W/m2
14:30 28.9 °C 15.5 °C 1023.9 hPa NNE 8.0 km/h 16.1 km/h 44 % 0.0 mm 870 W/m2
14:35 28.9 °C 16.5 °C 1023.9 hPa NNW 4.8 km/h 14.5 km/h 47 % 0.0 mm 867 W/m2
14:40 29.3 °C 16.1 °C 1023.9 hPa Calm   14.5 km/h 45 % 0.0 mm 861 W/m2
14:45 29.7 °C 15.4 °C 1023.9 hPa North 6.4 km/h 14.5 km/h 42 % 0.0 mm 861 W/m2
14:50 29.1 °C 15.9 °C 1023.6 hPa North 6.4 km/h 14.5 km/h 45 % 0.0 mm 861 W/m2
14:55 29.9 °C 16.0 °C 1023.6 hPa North 9.7 km/h 16.1 km/h 43 % 0.0 mm 853 W/m2
15:05 29.4 °C 15.9 °C 1023.6 hPa West 1.6 km/h 14.5 km/h 44 % 0.0 mm 851 W/m2
15:10 29.9 °C 15.6 °C 1023.6 hPa NE 1.6 km/h 14.5 km/h 42 % 0.0 mm 846 W/m2
15:15 29.9 °C 15.6 °C 1023.6 hPa East 3.2 km/h 14.5 km/h 42 % 0.0 mm 842 W/m2
15:20 29.7 °C 15.4 °C 1023.2 hPa NNW 1.6 km/h 14.5 km/h 42 % 0.0 mm 831 W/m2
15:25 30.1 °C 15.8 °C 1023.2 hPa ENE 6.4 km/h 16.1 km/h 42 % 0.0 mm 830 W/m2
15:30 29.9 °C 15.2 °C 1023.2 hPa Calm   16.1 km/h 41 % 0.0 mm 828 W/m2
15:35 30.2 °C 15.5 °C 1023.2 hPa NNW 8.0 km/h 11.3 km/h 41 % 0.0 mm 817 W/m2
15:40 30.2 °C 15.5 °C 1023.2 hPa NE 6.4 km/h 12.9 km/h 41 % 0.0 mm 817 W/m2
15:50 30.1 °C 15.4 °C 1023.2 hPa ENE 6.4 km/h 17.7 km/h 41 % 0.0 mm 805 W/m2
15:55 30.3 °C 15.2 °C 1023.2 hPa NE 1.6 km/h 11.3 km/h 40 % 0.0 mm 795 W/m2
16:00 30.3 °C 14.8 °C 1023.2 hPa ENE 3.2 km/h 14.5 km/h 39 % 0.0 mm 793 W/m2
16:05 30.2 °C 13.9 °C 1023.2 hPa NE 11.3 km/h 14.5 km/h 37 % 0.0 mm 784 W/m2
16:10 31.2 °C 14.4 °C 1023.2 hPa NE 9.7 km/h 14.5 km/h 36 % 0.0 mm 779 W/m2
16:15 30.4 °C 15.7 °C 1023.2 hPa WSW 6.4 km/h 16.1 km/h 41 % 0.0 mm 770 W/m2
16:20 30.0 °C 16.1 °C 1023.2 hPa WNW 6.4 km/h 17.7 km/h 43 % 0.0 mm 763 W/m2
16:25 29.5 °C 15.2 °C 1023.2 hPa NW 8.0 km/h 17.7 km/h 42 % 0.0 mm 756 W/m2
16:35 29.1 °C 16.6 °C 1022.9 hPa WNW 6.4 km/h 14.5 km/h 47 % 0.0 mm 738 W/m2
16:40 29.2 °C 16.0 °C 1022.9 hPa WNW 3.2 km/h 11.3 km/h 45 % 0.0 mm 726 W/m2
16:45 29.7 °C 16.1 °C 1022.9 hPa WNW 11.3 km/h 14.5 km/h 44 % 0.0 mm 714 W/m2
16:50 29.8 °C 16.2 °C 1022.9 hPa WNW 6.4 km/h 14.5 km/h 44 % 0.0 mm 710 W/m2
16:55 29.2 °C 16.7 °C 1022.9 hPa West 6.4 km/h 14.5 km/h 47 % 0.0 mm 700 W/m2
17:00 29.3 °C 16.8 °C 1022.9 hPa WNW 8.0 km/h 14.5 km/h 47 % 0.0 mm 686 W/m2
17:05 29.1 °C 17.0 °C 1022.9 hPa WSW 4.8 km/h 16.1 km/h 48 % 0.0 mm 677 W/m2
17:10 29.3 °C 17.1 °C 1022.6 hPa West 9.7 km/h 16.1 km/h 48 % 0.0 mm 661 W/m2
17:20 29.1 °C 16.6 °C 1022.6 hPa NNW 3.2 km/h 12.9 km/h 47 % 0.0 mm 642 W/m2
17:25 28.8 °C 16.4 °C 1022.6 hPa Calm   12.9 km/h 47 % 0.0 mm 629 W/m2
17:35 28.3 °C 16.9 °C 1022.6 hPa West 8.0 km/h 12.9 km/h 50 % 0.0 mm 606 W/m2
17:40 28.6 °C 16.8 °C 1022.2 hPa WSW 4.8 km/h 12.9 km/h 49 % 0.0 mm 596 W/m2
17:45 27.8 °C 16.1 °C 1022.2 hPa WSW 4.8 km/h 17.7 km/h 49 % 0.0 mm 584 W/m2
17:50 28.3 °C 16.9 °C 1022.2 hPa WSW 8.0 km/h 17.7 km/h 50 % 0.0 mm 570 W/m2
17:55 28.5 °C 16.7 °C 1022.2 hPa West 3.2 km/h 14.5 km/h 49 % 0.0 mm 557 W/m2
18:05 28.0 °C 16.9 °C 1021.9 hPa West 9.7 km/h 14.5 km/h 51 % 0.0 mm 534 W/m2
18:10 28.1 °C 17.3 °C 1021.9 hPa Calm   14.5 km/h 52 % 0.0 mm 517 W/m2
18:15 28.8 °C 17.3 °C 1021.9 hPa NW 4.8 km/h 14.5 km/h 50 % 0.0 mm 508 W/m2
18:20 28.7 °C 17.9 °C 1021.9 hPa NW 6.4 km/h 12.9 km/h 52 % 0.0 mm 490 W/m2
18:25 28.9 °C 18.1 °C 1021.9 hPa WNW 3.2 km/h 11.3 km/h 52 % 0.0 mm 476 W/m2
18:35 29.4 °C 18.5 °C 1021.6 hPa NE 8.0 km/h 17.7 km/h 52 % 0.0 mm 446 W/m2
18:40 29.8 °C 18.0 °C 1021.6 hPa NE 11.3 km/h 17.7 km/h 49 % 0.0 mm 436 W/m2
18:50 29.5 °C 17.7 °C 1021.6 hPa NE 4.8 km/h 20.9 km/h 49 % 0.0 mm 410 W/m2
18:55 29.6 °C 18.0 °C 1021.6 hPa North 8.0 km/h 20.9 km/h 50 % 0.0 mm 397 W/m2
19:00 29.3 °C 18.1 °C 1021.6 hPa ENE 11.3 km/h 20.9 km/h 51 % 0.0 mm 380 W/m2
19:05 29.1 °C 18.3 °C 1021.6 hPa NE 6.4 km/h 20.9 km/h 52 % 0.0 mm 364 W/m2
19:10 28.6 °C 18.3 °C 1021.6 hPa North 11.3 km/h 27.4 km/h 54 % 0.0 mm 353 W/m2
19:15 28.5 °C 18.3 °C 1021.6 hPa North 8.0 km/h 27.4 km/h 54 % 0.0 mm 341 W/m2
19:20 28.4 °C 18.5 °C 1021.6 hPa ENE 12.9 km/h 20.9 km/h 55 % 0.0 mm 327 W/m2
19:25 28.3 °C 18.4 °C 1021.6 hPa NE 9.7 km/h 22.5 km/h 55 % 0.0 mm 313 W/m2
19:35 27.9 °C 18.4 °C 1021.6 hPa NNE 14.5 km/h 20.9 km/h 56 % 0.0 mm 287 W/m2
19:40 27.8 °C 18.5 °C 1021.6 hPa NE 9.7 km/h 19.3 km/h 57 % 0.0 mm 271 W/m2
19:45 27.7 °C 18.4 °C 1021.6 hPa NNW 9.7 km/h 20.9 km/h 57 % 0.0 mm 258 W/m2
19:50 27.6 °C 18.3 °C 1021.6 hPa North 1.6 km/h 22.5 km/h 57 % 0.0 mm 239 W/m2
19:55 27.6 °C 18.3 °C 1021.6 hPa NE 9.7 km/h 22.5 km/h 57 % 0.0 mm 211 W/m2
20:00 27.4 °C 18.2 °C 1021.6 hPa Calm   19.3 km/h 57 % 0.0 mm 190 W/m2
20:05 27.3 °C 18.3 °C 1021.6 hPa NNE 11.3 km/h 22.5 km/h 58 % 0.0 mm 172 W/m2
20:10 27.1 °C 18.4 °C 1021.6 hPa ENE 16.1 km/h 22.5 km/h 59 % 0.0 mm 156 W/m2
20:20 26.8 °C 18.4 °C 1021.6 hPa NE 14.5 km/h 22.5 km/h 60 % 0.0 mm 142 W/m2
20:25 26.7 °C 18.0 °C 1021.6 hPa NE 3.2 km/h 22.5 km/h 59 % 0.0 mm 134 W/m2
20:30 26.5 °C 18.1 °C 1021.6 hPa NE 12.9 km/h 20.9 km/h 60 % 0.0 mm 114 W/m2
20:35 26.3 °C 18.2 °C 1021.6 hPa NNE 16.1 km/h 24.1 km/h 61 % 0.0 mm 97 W/m2
20:40 26.2 °C 18.3 °C 1021.6 hPa ENE 11.3 km/h 24.1 km/h 62 % 0.0 mm 53 W/m2
20:50 25.8 °C 18.3 °C 1021.6 hPa NNE 4.8 km/h 17.7 km/h 63 % 0.0 mm 25 W/m2
20:55 25.7 °C 18.1 °C 1021.6 hPa NE 8.0 km/h 20.9 km/h 63 % 0.0 mm 25 W/m2
21:05 25.4 °C 18.1 °C 1021.6 hPa ENE 9.7 km/h 17.7 km/h 64 % 0.0 mm 21 W/m2
21:10 25.3 °C 18.2 °C 1021.6 hPa NE 8.0 km/h 17.7 km/h 65 % 0.0 mm 19 W/m2
21:15 25.1 °C 18.1 °C 1021.6 hPa NNE 8.0 km/h 20.9 km/h 65 % 0.0 mm 18 W/m2
21:20 25.1 °C 18.1 °C 1021.6 hPa North 6.4 km/h 20.9 km/h 65 % 0.0 mm 16 W/m2
21:25 25.0 °C 18.2 °C 1021.6 hPa ENE 4.8 km/h 16.1 km/h 66 % 0.0 mm 14 W/m2
21:30 24.8 °C 18.3 °C 1021.6 hPa NE 4.8 km/h 14.5 km/h 67 % 0.0 mm 12 W/m2
21:35 24.6 °C 18.3 °C 1021.6 hPa NE 4.8 km/h 14.5 km/h 68 % 0.0 mm 11 W/m2
21:40 24.5 °C 18.2 °C 1021.6 hPa NE 6.4 km/h 16.1 km/h 68 % 0.0 mm 9 W/m2
21:50 24.2 °C 17.9 °C 1021.6 hPa North 1.6 km/h 14.5 km/h 68 % 0.0 mm 5 W/m2
22:00 23.9 °C 17.9 °C 1021.6 hPa ENE 6.4 km/h 22.5 km/h 69 % 0.0 mm 0 W/m2
22:05 23.8 °C 17.8 °C 1021.6 hPa NE 6.4 km/h 24.1 km/h 69 % 0.0 mm 0 W/m2
22:10 23.8 °C 17.7 °C 1021.6 hPa ENE 8.0 km/h 24.1 km/h 69 % 0.0 mm 0 W/m2
22:15 23.7 °C 17.7 °C 1021.9 hPa NE 9.7 km/h 19.3 km/h 69 % 0.0 mm 0 W/m2
22:20 23.6 °C 17.8 °C 1021.9 hPa NNE 9.7 km/h 19.3 km/h 70 % 0.0 mm 0 W/m2
22:25 23.4 °C 17.6 °C 1021.9 hPa NE 14.5 km/h 16.1 km/h 70 % 0.0 mm 0 W/m2
22:35 23.2 °C 17.7 °C 1021.9 hPa NNW 1.6 km/h 17.7 km/h 71 % 0.0 mm 0 W/m2
22:40 23.1 °C 17.5 °C 1021.9 hPa North 6.4 km/h 17.7 km/h 71 % 0.0 mm 0 W/m2
22:45 22.9 °C 17.6 °C 1022.2 hPa North 8.0 km/h 16.1 km/h 72 % 0.0 mm 0 W/m2
22:50 22.8 °C 17.5 °C 1022.2 hPa ENE 22.5 km/h 22.5 km/h 72 % 0.0 mm 0 W/m2
22:55 22.7 °C 17.2 °C 1022.2 hPa North 17.7 km/h 22.5 km/h 71 % 0.0 mm 0 W/m2
23:05 22.4 °C 17.1 °C 1022.2 hPa NNE 1.6 km/h 19.3 km/h 72 % 0.0 mm 0 W/m2
23:10 22.3 °C 17.0 °C 1022.2 hPa NE 11.3 km/h 22.5 km/h 72 % 0.0 mm 0 W/m2
23:20 22.1 °C 17.0 °C 1022.2 hPa North 11.3 km/h 22.5 km/h 73 % 0.0 mm 0 W/m2
23:25 21.9 °C 16.9 °C 1022.2 hPa NE 4.8 km/h 24.1 km/h 73 % 0.0 mm 0 W/m2
23:30 21.8 °C 16.7 °C 1022.2 hPa NE 9.7 km/h 24.1 km/h 73 % 0.0 mm 0 W/m2
23:35 21.6 °C 16.8 °C 1022.2 hPa NNE 9.7 km/h 20.9 km/h 74 % 0.0 mm 0 W/m2
23:40 21.5 °C 16.7 °C 1022.2 hPa NE 8.0 km/h 20.9 km/h 74 % 0.0 mm 0 W/m2
23:45 21.3 °C 16.7 °C 1022.2 hPa NNE 3.2 km/h 20.9 km/h 75 % 0.0 mm 0 W/m2
23:50 21.2 °C 16.6 °C 1022.2 hPa North 11.3 km/h 20.9 km/h 75 % 0.0 mm 0 W/m2
23:55 21.0 °C 16.6 °C 1022.2 hPa NNE 9.7 km/h 22.5 km/h 76 % 0.0 mm 0 W/m2
Avec l'autorisation de Weather Underground - 1.5 mb